sensor_id;sensor_type;location;lat;lon;timestamp;pressure;altitude;pressure_sealevel;temperature;humidity
9676;BME280;4876;42.656;23.292;2022-09-09T00:01:26;94592.28;;;18.68;81.58
9676;BME280;4876;42.656;23.292;2022-09-09T00:04:02;94591.97;;;18.73;81.39
9676;BME280;4876;42.656;23.292;2022-09-09T00:06:32;94587.81;;;18.75;81.21
9676;BME280;4876;42.656;23.292;2022-09-09T00:09:04;94587.50;;;18.77;80.64
9676;BME280;4876;42.656;23.292;2022-09-09T00:11:39;94591.63;;;18.74;80.06
9676;BME280;4876;42.656;23.292;2022-09-09T00:14:13;94583.69;;;18.78;80.16
9676;BME280;4876;42.656;23.292;2022-09-09T00:16:46;94597.53;;;18.64;80.91
9676;BME280;4876;42.656;23.292;2022-09-09T00:19:22;94599.06;;;18.65;81.30
9676;BME280;4876;42.656;23.292;2022-09-09T00:21:56;94577.53;;;18.74;80.56
9676;BME280;4876;42.656;23.292;2022-09-09T00:24:29;94572.41;;;18.65;81.03
9676;BME280;4876;42.656;23.292;2022-09-09T00:27:01;94571.88;;;18.56;82.22
9676;BME280;4876;42.656;23.292;2022-09-09T00:29:35;94569.63;;;18.58;81.85
9676;BME280;4876;42.656;23.292;2022-09-09T00:32:12;94569.84;;;18.49;82.05
9676;BME280;4876;42.656;23.292;2022-09-09T00:34:46;94567.75;;;18.59;80.80
9676;BME280;4876;42.656;23.292;2022-09-09T00:37:13;94552.53;;;18.59;79.99
9676;BME280;4876;42.656;23.292;2022-09-09T00:39:42;94548.63;;;18.53;80.18
9676;BME280;4876;42.656;23.292;2022-09-09T00:42:15;94531.56;;;18.35;80.25
9676;BME280;4876;42.656;23.292;2022-09-09T00:44:56;94549.31;;;18.50;80.47
9676;BME280;4876;42.656;23.292;2022-09-09T00:47:46;94552.28;;;18.25;80.83
9676;BME280;4876;42.656;23.292;2022-09-09T00:50:27;94561.25;;;18.37;81.20
9676;BME280;4876;42.656;23.292;2022-09-09T00:53:05;94563.44;;;18.12;82.26
9676;BME280;4876;42.656;23.292;2022-09-09T00:55:41;94555.56;;;18.15;81.75
9676;BME280;4876;42.656;23.292;2022-09-09T00:58:12;94549.50;;;18.18;81.78
9676;BME280;4876;42.656;23.292;2022-09-09T01:00:42;94552.81;;;18.12;82.10
9676;BME280;4876;42.656;23.292;2022-09-09T01:03:21;94559.19;;;18.07;81.92
9676;BME280;4876;42.656;23.292;2022-09-09T01:05:57;94561.56;;;18.12;81.99
9676;BME280;4876;42.656;23.292;2022-09-09T01:08:48;94549.31;;;18.08;81.17
9676;BME280;4876;42.656;23.292;2022-09-09T01:11:22;94563.25;;;18.20;80.72
9676;BME280;4876;42.656;23.292;2022-09-09T01:13:55;94560.03;;;18.11;81.42
9676;BME280;4876;42.656;23.292;2022-09-09T01:16:24;94558.09;;;17.89;82.67
9676;BME280;4876;42.656;23.292;2022-09-09T01:18:53;94554.06;;;17.98;82.70
9676;BME280;4876;42.656;23.292;2022-09-09T01:21:32;94560.44;;;17.94;82.89
9676;BME280;4876;42.656;23.292;2022-09-09T01:24:19;94558.78;;;17.86;83.96
9676;BME280;4876;42.656;23.292;2022-09-09T01:26:51;94539.75;;;17.84;83.08
9676;BME280;4876;42.656;23.292;2022-09-09T01:29:20;94546.81;;;17.95;82.50
9676;BME280;4876;42.656;23.292;2022-09-09T01:31:53;94548.84;;;18.02;82.70
9676;BME280;4876;42.656;23.292;2022-09-09T01:34:22;94547.72;;;18.03;82.58
9676;BME280;4876;42.656;23.292;2022-09-09T01:36:55;94550.38;;;18.03;81.71
9676;BME280;4876;42.656;23.292;2022-09-09T01:39:24;94551.06;;;17.81;82.77
9676;BME280;4876;42.656;23.292;2022-09-09T01:41:54;94555.63;;;17.80;83.24
9676;BME280;4876;42.656;23.292;2022-09-09T01:44:22;94567.31;;;17.95;82.89
9676;BME280;4876;42.656;23.292;2022-09-09T01:46:49;94570.41;;;17.97;82.41
9676;BME280;4876;42.656;23.292;2022-09-09T01:49:16;94515.94;;;17.56;82.76
9676;BME280;4876;42.656;23.292;2022-09-09T01:51:46;94580.47;;;17.88;82.97
9676;BME280;4876;42.656;23.292;2022-09-09T01:54:15;94580.59;;;17.75;83.60
9676;BME280;4876;42.656;23.292;2022-09-09T01:56:48;94578.22;;;17.70;84.56
9676;BME280;4876;42.656;23.292;2022-09-09T01:59:35;94571.84;;;17.75;84.25
9676;BME280;4876;42.656;23.292;2022-09-09T02:02:10;94544.72;;;17.50;83.53
9676;BME280;4876;42.656;23.292;2022-09-09T02:04:40;94570.56;;;17.69;84.45
9676;BME280;4876;42.656;23.292;2022-09-09T02:07:17;94566.78;;;17.70;84.19
9676;BME280;4876;42.656;23.292;2022-09-09T02:09:52;94571.88;;;17.59;85.08
9676;BME280;4876;42.656;23.292;2022-09-09T02:12:24;94565.84;;;17.62;85.32
9676;BME280;4876;42.656;23.292;2022-09-09T02:14:56;94551.88;;;17.65;85.01
9676;BME280;4876;42.656;23.292;2022-09-09T02:17:28;94552.28;;;17.67;85.06
9676;BME280;4876;42.656;23.292;2022-09-09T02:19:59;94561.81;;;17.68;85.31
9676;BME280;4876;42.656;23.292;2022-09-09T02:22:31;94560.19;;;17.64;85.48
9676;BME280;4876;42.656;23.292;2022-09-09T02:25:00;94553.81;;;17.68;84.90
9676;BME280;4876;42.656;23.292;2022-09-09T02:27:27;94544.06;;;17.72;84.21
9676;BME280;4876;42.656;23.292;2022-09-09T02:29:56;94566.22;;;17.61;85.12
9676;BME280;4876;42.656;23.292;2022-09-09T02:32:28;94559.28;;;17.56;85.19
9676;BME280;4876;42.656;23.292;2022-09-09T02:34:59;94557.22;;;17.49;85.54
9676;BME280;4876;42.656;23.292;2022-09-09T02:37:30;94565.94;;;17.31;85.89
9676;BME280;4876;42.656;23.292;2022-09-09T02:39:58;94559.25;;;17.37;85.57
9676;BME280;4876;42.656;23.292;2022-09-09T02:42:25;94572.72;;;17.28;86.65
9676;BME280;4876;42.656;23.292;2022-09-09T02:44:52;94569.16;;;17.20;86.71
9676;BME280;4876;42.656;23.292;2022-09-09T02:47:26;94570.13;;;17.32;86.12
9676;BME280;4876;42.656;23.292;2022-09-09T02:50:08;94578.50;;;17.14;86.44
9676;BME280;4876;42.656;23.292;2022-09-09T02:52:44;94572.28;;;17.26;85.79
9676;BME280;4876;42.656;23.292;2022-09-09T02:55:18;94580.72;;;17.28;85.47
9676;BME280;4876;42.656;23.292;2022-09-09T02:57:49;94568.44;;;17.23;86.21
9676;BME280;4876;42.656;23.292;2022-09-09T03:00:16;94568.88;;;17.26;86.28
9676;BME280;4876;42.656;23.292;2022-09-09T03:02:51;94571.66;;;17.33;86.04
9676;BME280;4876;42.656;23.292;2022-09-09T03:05:18;94566.09;;;17.38;85.61
9676;BME280;4876;42.656;23.292;2022-09-09T03:07:45;94576.09;;;17.44;84.93
9676;BME280;4876;42.656;23.292;2022-09-09T03:10:12;94556.53;;;17.33;84.42
9676;BME280;4876;42.656;23.292;2022-09-09T03:12:39;94573.53;;;17.48;84.06
9676;BME280;4876;42.656;23.292;2022-09-09T03:15:07;94576.81;;;17.41;84.70
9676;BME280;4876;42.656;23.292;2022-09-09T03:17:34;94575.34;;;17.44;84.65
9676;BME280;4876;42.656;23.292;2022-09-09T03:20:02;94574.22;;;17.45;84.18
9676;BME280;4876;42.656;23.292;2022-09-09T03:22:29;94575.44;;;17.47;84.24
9676;BME280;4876;42.656;23.292;2022-09-09T03:24:56;94581.44;;;17.44;84.15
9676;BME280;4876;42.656;23.292;2022-09-09T03:27:23;94577.44;;;17.35;85.08
9676;BME280;4876;42.656;23.292;2022-09-09T03:29:50;94577.16;;;17.40;85.09
9676;BME280;4876;42.656;23.292;2022-09-09T03:32:17;94572.41;;;17.49;84.57
9676;BME280;4876;42.656;23.292;2022-09-09T03:34:43;94567.81;;;17.46;84.19
9676;BME280;4876;42.656;23.292;2022-09-09T03:37:14;94564.81;;;17.32;85.10
9676;BME280;4876;42.656;23.292;2022-09-09T03:39:40;94571.19;;;17.27;86.15
9676;BME280;4876;42.656;23.292;2022-09-09T03:42:07;94574.41;;;17.36;85.47
9676;BME280;4876;42.656;23.292;2022-09-09T03:44:34;94563.63;;;17.29;85.73
9676;BME280;4876;42.656;23.292;2022-09-09T03:47:01;94554.53;;;17.30;86.20
9676;BME280;4876;42.656;23.292;2022-09-09T03:49:28;94562.25;;;17.35;86.03
9676;BME280;4876;42.656;23.292;2022-09-09T03:51:55;94568.06;;;17.41;84.53
9676;BME280;4876;42.656;23.292;2022-09-09T03:54:25;94575.75;;;17.27;85.45
9676;BME280;4876;42.656;23.292;2022-09-09T03:56:52;94576.84;;;17.26;86.15
9676;BME280;4876;42.656;23.292;2022-09-09T03:59:19;94569.97;;;17.25;86.58
9676;BME280;4876;42.656;23.292;2022-09-09T04:01:46;94578.09;;;17.32;85.92
9676;BME280;4876;42.656;23.292;2022-09-09T04:04:13;94588.06;;;17.35;85.54
9676;BME280;4876;42.656;23.292;2022-09-09T04:06:40;94586.34;;;17.42;85.37
9676;BME280;4876;42.656;23.292;2022-09-09T04:09:07;94587.75;;;17.56;84.82
9676;BME280;4876;42.656;23.292;2022-09-09T04:11:35;94581.91;;;17.66;84.78
9676;BME280;4876;42.656;23.292;2022-09-09T04:14:02;94587.63;;;17.84;84.58
9676;BME280;4876;42.656;23.292;2022-09-09T04:16:31;94581.88;;;18.01;83.51
9676;BME280;4876;42.656;23.292;2022-09-09T04:18:58;94576.13;;;18.18;81.90
9676;BME280;4876;42.656;23.292;2022-09-09T04:21:26;94575.00;;;18.39;79.57
9676;BME280;4876;42.656;23.292;2022-09-09T04:23:53;94584.41;;;18.55;79.62
9676;BME280;4876;42.656;23.292;2022-09-09T04:26:20;94572.28;;;18.77;79.58
9676;BME280;4876;42.656;23.292;2022-09-09T04:28:48;94572.00;;;19.09;76.13
9676;BME280;4876;42.656;23.292;2022-09-09T04:31:16;94584.88;;;19.30;75.11
9676;BME280;4876;42.656;23.292;2022-09-09T04:33:45;94579.88;;;19.51;73.82
9676;BME280;4876;42.656;23.292;2022-09-09T04:36:12;94591.50;;;19.93;72.94
9676;BME280;4876;42.656;23.292;2022-09-09T04:38:39;94580.16;;;20.33;71.89
9676;BME280;4876;42.656;23.292;2022-09-09T04:41:06;94592.66;;;20.59;70.33
9676;BME280;4876;42.656;23.292;2022-09-09T04:43:36;94600.59;;;20.52;70.21
9676;BME280;4876;42.656;23.292;2022-09-09T04:46:05;94563.66;;;20.27;70.10
9676;BME280;4876;42.656;23.292;2022-09-09T04:48:33;94589.25;;;20.28;69.88
9676;BME280;4876;42.656;23.292;2022-09-09T04:51:02;94578.72;;;19.79;72.07
9676;BME280;4876;42.656;23.292;2022-09-09T04:53:29;94572.94;;;19.47;75.39
9676;BME280;4876;42.656;23.292;2022-09-09T04:56:01;94572.41;;;19.90;74.08
9676;BME280;4876;42.656;23.292;2022-09-09T04:58:28;94569.25;;;20.15;73.52
9676;BME280;4876;42.656;23.292;2022-09-09T05:00:55;94573.91;;;20.22;72.13
9676;BME280;4876;42.656;23.292;2022-09-09T05:03:30;94579.22;;;20.52;71.05
9676;BME280;4876;42.656;23.292;2022-09-09T05:06:02;94571.66;;;20.61;70.08
9676;BME280;4876;42.656;23.292;2022-09-09T05:08:30;94549.69;;;20.78;69.56
9676;BME280;4876;42.656;23.292;2022-09-09T05:10:56;94554.50;;;20.62;68.51
9676;BME280;4876;42.656;23.292;2022-09-09T05:13:25;94557.47;;;20.50;69.52
9676;BME280;4876;42.656;23.292;2022-09-09T05:15:52;94574.50;;;20.41;69.14
9676;BME280;4876;42.656;23.292;2022-09-09T05:18:19;94574.09;;;20.39;69.41
9676;BME280;4876;42.656;23.292;2022-09-09T05:20:49;94545.00;;;20.68;66.89
9676;BME280;4876;42.656;23.292;2022-09-09T05:23:16;94549.44;;;20.97;66.06
9676;BME280;4876;42.656;23.292;2022-09-09T05:25:43;94552.50;;;20.96;67.00
9676;BME280;4876;42.656;23.292;2022-09-09T05:28:12;94554.47;;;20.58;68.04
9676;BME280;4876;42.656;23.292;2022-09-09T05:30:38;94566.31;;;20.61;69.09
9676;BME280;4876;42.656;23.292;2022-09-09T05:33:05;94570.03;;;20.15;70.54
9676;BME280;4876;42.656;23.292;2022-09-09T05:35:34;94565.16;;;20.58;68.93
9676;BME280;4876;42.656;23.292;2022-09-09T05:38:02;94561.22;;;20.45;70.28
9676;BME280;4876;42.656;23.292;2022-09-09T05:40:29;94561.41;;;20.63;69.01
9676;BME280;4876;42.656;23.292;2022-09-09T05:43:00;94532.72;;;20.60;68.42
9676;BME280;4876;42.656;23.292;2022-09-09T05:45:27;94570.88;;;21.01;67.69
9676;BME280;4876;42.656;23.292;2022-09-09T05:47:59;94579.47;;;21.28;66.48
9676;BME280;4876;42.656;23.292;2022-09-09T05:50:27;94574.19;;;21.32;66.73
9676;BME280;4876;42.656;23.292;2022-09-09T05:52:54;94577.94;;;21.27;65.83
9676;BME280;4876;42.656;23.292;2022-09-09T05:55:22;94571.41;;;21.21;67.11
9676;BME280;4876;42.656;23.292;2022-09-09T05:57:50;94568.34;;;21.19;66.92
9676;BME280;4876;42.656;23.292;2022-09-09T06:00:17;94567.66;;;21.29;66.31
9676;BME280;4876;42.656;23.292;2022-09-09T06:02:50;94574.28;;;20.98;67.33
9676;BME280;4876;42.656;23.292;2022-09-09T06:05:17;94588.88;;;21.08;67.36
9676;BME280;4876;42.656;23.292;2022-09-09T06:07:44;94593.00;;;20.98;69.24
9676;BME280;4876;42.656;23.292;2022-09-09T06:10:11;94593.91;;;21.16;66.87
9676;BME280;4876;42.656;23.292;2022-09-09T06:12:40;94587.84;;;21.23;65.40
9676;BME280;4876;42.656;23.292;2022-09-09T06:15:08;94595.31;;;21.00;67.45
9676;BME280;4876;42.656;23.292;2022-09-09T06:17:35;94582.34;;;21.05;67.00
9676;BME280;4876;42.656;23.292;2022-09-09T06:20:02;94592.22;;;21.38;65.45
9676;BME280;4876;42.656;23.292;2022-09-09T06:22:29;94584.75;;;21.17;66.07
9676;BME280;4876;42.656;23.292;2022-09-09T06:24:56;94581.66;;;21.67;63.70
9676;BME280;4876;42.656;23.292;2022-09-09T06:27:23;94582.50;;;21.23;65.62
9676;BME280;4876;42.656;23.292;2022-09-09T06:29:51;94588.72;;;21.31;65.89
9676;BME280;4876;42.656;23.292;2022-09-09T06:32:18;94595.13;;;21.77;63.96
9676;BME280;4876;42.656;23.292;2022-09-09T06:34:45;94579.94;;;22.03;62.47
9676;BME280;4876;42.656;23.292;2022-09-09T06:37:12;94580.91;;;21.66;63.80
9676;BME280;4876;42.656;23.292;2022-09-09T06:39:39;94574.44;;;21.71;64.04
9676;BME280;4876;42.656;23.292;2022-09-09T06:42:06;94573.72;;;21.81;63.25
9676;BME280;4876;42.656;23.292;2022-09-09T06:44:34;94565.09;;;21.43;66.27
9676;BME280;4876;42.656;23.292;2022-09-09T06:47:03;94576.63;;;21.55;64.99
9676;BME280;4876;42.656;23.292;2022-09-09T06:49:30;94580.78;;;21.45;65.39
9676;BME280;4876;42.656;23.292;2022-09-09T06:51:57;94589.81;;;21.88;63.27
9676;BME280;4876;42.656;23.292;2022-09-09T06:54:24;94586.59;;;21.58;64.32
9676;BME280;4876;42.656;23.292;2022-09-09T06:56:51;94578.16;;;21.52;65.45
9676;BME280;4876;42.656;23.292;2022-09-09T06:59:18;94595.47;;;21.69;65.00
9676;BME280;4876;42.656;23.292;2022-09-09T07:01:44;94598.13;;;21.72;64.27
9676;BME280;4876;42.656;23.292;2022-09-09T07:04:13;94591.31;;;21.82;63.88
9676;BME280;4876;42.656;23.292;2022-09-09T07:06:41;94597.22;;;22.16;62.57
9676;BME280;4876;42.656;23.292;2022-09-09T07:09:10;94600.56;;;21.95;63.60
9676;BME280;4876;42.656;23.292;2022-09-09T07:11:39;94595.59;;;21.97;63.41
9676;BME280;4876;42.656;23.292;2022-09-09T07:14:06;94585.06;;;22.37;62.58
9676;BME280;4876;42.656;23.292;2022-09-09T07:16:33;94591.53;;;22.25;62.65
9676;BME280;4876;42.656;23.292;2022-09-09T07:19:03;94586.91;;;22.15;62.28
9676;BME280;4876;42.656;23.292;2022-09-09T07:21:32;94580.72;;;22.07;63.35
9676;BME280;4876;42.656;23.292;2022-09-09T07:23:59;94588.50;;;22.37;62.62
9676;BME280;4876;42.656;23.292;2022-09-09T07:26:28;94581.66;;;22.57;61.85
9676;BME280;4876;42.656;23.292;2022-09-09T07:28:55;94585.50;;;22.49;61.86
9676;BME280;4876;42.656;23.292;2022-09-09T07:31:24;94574.34;;;22.37;62.29
9676;BME280;4876;42.656;23.292;2022-09-09T07:33:51;94577.78;;;22.30;62.74
9676;BME280;4876;42.656;23.292;2022-09-09T07:36:19;94575.88;;;22.38;62.46
9676;BME280;4876;42.656;23.292;2022-09-09T07:38:49;94577.47;;;22.67;61.72
9676;BME280;4876;42.656;23.292;2022-09-09T07:41:19;94577.91;;;22.94;60.18
9676;BME280;4876;42.656;23.292;2022-09-09T07:43:47;94579.41;;;22.81;60.38
9676;BME280;4876;42.656;23.292;2022-09-09T07:46:16;94588.66;;;23.08;60.12
9676;BME280;4876;42.656;23.292;2022-09-09T07:48:45;94585.59;;;23.42;58.37
9676;BME280;4876;42.656;23.292;2022-09-09T07:51:14;94595.91;;;23.22;58.72
9676;BME280;4876;42.656;23.292;2022-09-09T07:53:43;94586.34;;;23.32;59.15
9676;BME280;4876;42.656;23.292;2022-09-09T07:56:12;94589.03;;;23.18;59.00
9676;BME280;4876;42.656;23.292;2022-09-09T07:58:40;94588.63;;;23.41;58.48
9676;BME280;4876;42.656;23.292;2022-09-09T08:01:09;94591.72;;;23.18;59.93
9676;BME280;4876;42.656;23.292;2022-09-09T08:03:37;94569.47;;;23.35;58.47
9676;BME280;4876;42.656;23.292;2022-09-09T08:06:06;94576.34;;;23.68;57.97
9676;BME280;4876;42.656;23.292;2022-09-09T08:08:33;94584.38;;;23.72;57.97
9676;BME280;4876;42.656;23.292;2022-09-09T08:11:02;94580.91;;;23.78;57.34
9676;BME280;4876;42.656;23.292;2022-09-09T08:13:31;94585.56;;;23.63;58.37
9676;BME280;4876;42.656;23.292;2022-09-09T08:16:04;94555.28;;;23.67;57.97
9676;BME280;4876;42.656;23.292;2022-09-09T08:18:32;94577.81;;;23.90;57.26
9676;BME280;4876;42.656;23.292;2022-09-09T08:21:05;94581.34;;;23.55;58.48
9676;BME280;4876;42.656;23.292;2022-09-09T08:23:32;94589.38;;;23.77;57.73
9676;BME280;4876;42.656;23.292;2022-09-09T08:26:03;94581.66;;;23.93;56.42
9676;BME280;4876;42.656;23.292;2022-09-09T08:28:32;94583.16;;;24.05;57.83
9676;BME280;4876;42.656;23.292;2022-09-09T08:31:06;94544.84;;;23.86;57.63
9676;BME280;4876;42.656;23.292;2022-09-09T08:33:33;94569.28;;;24.13;56.81
9676;BME280;4876;42.656;23.292;2022-09-09T08:36:02;94544.06;;;23.86;56.55
9676;BME280;4876;42.656;23.292;2022-09-09T08:38:28;94583.13;;;24.12;56.41
9676;BME280;4876;42.656;23.292;2022-09-09T08:41:02;94555.59;;;23.83;56.76
9676;BME280;4876;42.656;23.292;2022-09-09T08:43:35;94578.56;;;23.98;56.85
9676;BME280;4876;42.656;23.292;2022-09-09T08:46:06;94572.44;;;23.98;57.17
9676;BME280;4876;42.656;23.292;2022-09-09T08:48:50;94576.28;;;23.93;57.39
9676;BME280;4876;42.656;23.292;2022-09-09T08:51:24;94566.28;;;24.01;57.10
9676;BME280;4876;42.656;23.292;2022-09-09T08:53:53;94570.41;;;24.16;56.87
9676;BME280;4876;42.656;23.292;2022-09-09T08:56:24;94573.06;;;24.34;55.90
9676;BME280;4876;42.656;23.292;2022-09-09T08:58:54;94565.41;;;24.29;55.01
9676;BME280;4876;42.656;23.292;2022-09-09T09:01:41;94559.25;;;24.25;55.29
9676;BME280;4876;42.656;23.292;2022-09-09T09:04:20;94558.50;;;24.35;54.65
9676;BME280;4876;42.656;23.292;2022-09-09T09:06:57;94566.47;;;24.49;54.74
9676;BME280;4876;42.656;23.292;2022-09-09T09:09:37;94575.03;;;24.19;55.03
9676;BME280;4876;42.656;23.292;2022-09-09T09:12:15;94571.97;;;24.13;55.55
9676;BME280;4876;42.656;23.292;2022-09-09T09:14:46;94569.13;;;24.53;55.21
9676;BME280;4876;42.656;23.292;2022-09-09T09:17:16;94556.38;;;24.67;54.39
9676;BME280;4876;42.656;23.292;2022-09-09T09:19:45;94571.91;;;25.05;53.08
9676;BME280;4876;42.656;23.292;2022-09-09T09:22:17;94575.59;;;25.21;52.73
9676;BME280;4876;42.656;23.292;2022-09-09T09:24:51;94565.78;;;24.93;53.62
9676;BME280;4876;42.656;23.292;2022-09-09T09:27:25;94560.34;;;25.04;53.13
9676;BME280;4876;42.656;23.292;2022-09-09T09:29:58;94572.25;;;25.07;52.42
9676;BME280;4876;42.656;23.292;2022-09-09T09:32:29;94559.19;;;25.05;52.89
9676;BME280;4876;42.656;23.292;2022-09-09T09:34:58;94562.56;;;25.16;52.67
9676;BME280;4876;42.656;23.292;2022-09-09T09:37:29;94566.84;;;25.55;51.73
9676;BME280;4876;42.656;23.292;2022-09-09T09:40:08;94554.19;;;25.48;51.72
9676;BME280;4876;42.656;23.292;2022-09-09T09:42:36;94548.72;;;25.59;51.69
9676;BME280;4876;42.656;23.292;2022-09-09T09:45:17;94543.84;;;25.47;51.09
9676;BME280;4876;42.656;23.292;2022-09-09T09:47:58;94541.66;;;25.35;51.87
9676;BME280;4876;42.656;23.292;2022-09-09T09:50:24;94549.81;;;25.20;52.31
9676;BME280;4876;42.656;23.292;2022-09-09T09:52:56;94554.63;;;25.43;51.04
9676;BME280;4876;42.656;23.292;2022-09-09T09:55:23;94544.88;;;25.15;50.95
9676;BME280;4876;42.656;23.292;2022-09-09T09:57:51;94536.78;;;25.19;52.10
9676;BME280;4876;42.656;23.292;2022-09-09T10:00:22;94540.75;;;25.48;51.32
9676;BME280;4876;42.656;23.292;2022-09-09T10:02:51;94535.78;;;25.81;50.55
9676;BME280;4876;42.656;23.292;2022-09-09T10:05:24;94529.81;;;25.63;50.64
9676;BME280;4876;42.656;23.292;2022-09-09T10:08:04;94524.00;;;25.30;51.33
9676;BME280;4876;42.656;23.292;2022-09-09T10:10:50;94540.44;;;25.39;51.73
9676;BME280;4876;42.656;23.292;2022-09-09T10:13:25;94547.63;;;25.53;51.22
9676;BME280;4876;42.656;23.292;2022-09-09T10:16:08;94541.84;;;25.51;50.67
9676;BME280;4876;42.656;23.292;2022-09-09T10:18:47;94550.84;;;25.37;50.77
9676;BME280;4876;42.656;23.292;2022-09-09T10:21:28;94556.31;;;25.27;51.08
9676;BME280;4876;42.656;23.292;2022-09-09T10:24:08;94541.88;;;25.06;51.83
9676;BME280;4876;42.656;23.292;2022-09-09T10:26:44;94551.00;;;25.19;52.18
9676;BME280;4876;42.656;23.292;2022-09-09T10:29:27;94540.13;;;25.30;51.18
9676;BME280;4876;42.656;23.292;2022-09-09T10:32:06;94551.88;;;25.09;51.69
9676;BME280;4876;42.656;23.292;2022-09-09T10:34:50;94549.31;;;24.88;53.58
9676;BME280;4876;42.656;23.292;2022-09-09T10:37:30;94552.25;;;25.04;52.59
9676;BME280;4876;42.656;23.292;2022-09-09T10:40:02;94525.41;;;24.97;52.58
9676;BME280;4876;42.656;23.292;2022-09-09T10:42:33;94566.75;;;25.21;52.57
9676;BME280;4876;42.656;23.292;2022-09-09T10:45:15;94558.66;;;25.21;53.25
9676;BME280;4876;42.656;23.292;2022-09-09T10:47:59;94564.19;;;25.07;52.20
9676;BME280;4876;42.656;23.292;2022-09-09T10:50:40;94560.81;;;24.88;52.96
9676;BME280;4876;42.656;23.292;2022-09-09T10:53:14;94552.63;;;25.03;53.12
9676;BME280;4876;42.656;23.292;2022-09-09T10:55:51;94556.31;;;25.27;52.02
9676;BME280;4876;42.656;23.292;2022-09-09T10:58:23;94555.47;;;25.37;51.86
9676;BME280;4876;42.656;23.292;2022-09-09T11:00:55;94529.66;;;24.94;52.78
9676;BME280;4876;42.656;23.292;2022-09-09T11:03:26;94549.19;;;25.06;53.00
9676;BME280;4876;42.656;23.292;2022-09-09T11:05:58;94560.09;;;25.36;53.17
9676;BME280;4876;42.656;23.292;2022-09-09T11:08:29;94552.84;;;25.30;53.73
9676;BME280;4876;42.656;23.292;2022-09-09T11:11:00;94555.03;;;25.42;54.28
9676;BME280;4876;42.656;23.292;2022-09-09T11:13:33;94554.13;;;25.56;53.92
9676;BME280;4876;42.656;23.292;2022-09-09T11:16:08;94548.41;;;25.50;54.22
9676;BME280;4876;42.656;23.292;2022-09-09T11:18:41;94545.22;;;25.62;54.10
9676;BME280;4876;42.656;23.292;2022-09-09T11:21:14;94535.56;;;25.65;54.72
9676;BME280;4876;42.656;23.292;2022-09-09T11:23:45;94535.69;;;25.92;53.77
9676;BME280;4876;42.656;23.292;2022-09-09T11:26:17;94536.16;;;26.14;53.14
9676;BME280;4876;42.656;23.292;2022-09-09T11:28:56;94532.00;;;26.09;53.96
9676;BME280;4876;42.656;23.292;2022-09-09T11:31:38;94522.66;;;25.87;55.10
9676;BME280;4876;42.656;23.292;2022-09-09T11:34:32;94508.84;;;26.15;54.20
9676;BME280;4876;42.656;23.292;2022-09-09T11:37:11;94500.28;;;25.90;54.07
9676;BME280;4876;42.656;23.292;2022-09-09T11:40:07;94504.44;;;25.60;55.76
9676;BME280;4876;42.656;23.292;2022-09-09T11:42:35;94495.41;;;25.40;54.89
9676;BME280;4876;42.656;23.292;2022-09-09T11:45:10;94491.69;;;25.27;55.48
9676;BME280;4876;42.656;23.292;2022-09-09T11:47:38;94473.59;;;25.31;55.97
9676;BME280;4876;42.656;23.292;2022-09-09T11:50:26;94456.94;;;25.39;55.88
9676;BME280;4876;42.656;23.292;2022-09-09T11:53:04;94460.91;;;25.28;56.55
9676;BME280;4876;42.656;23.292;2022-09-09T11:55:36;94460.13;;;25.31;56.21
9676;BME280;4876;42.656;23.292;2022-09-09T11:58:04;94470.66;;;25.14;57.61
9676;BME280;4876;42.656;23.292;2022-09-09T12:00:34;94464.59;;;25.44;56.27
9676;BME280;4876;42.656;23.292;2022-09-09T12:03:03;94474.09;;;25.56;56.12
9676;BME280;4876;42.656;23.292;2022-09-09T12:05:46;94462.91;;;25.58;54.88
9676;BME280;4876;42.656;23.292;2022-09-09T12:08:20;94468.13;;;25.75;55.28
9676;BME280;4876;42.656;23.292;2022-09-09T12:10:54;94456.06;;;25.84;55.86
9676;BME280;4876;42.656;23.292;2022-09-09T12:13:23;94460.31;;;25.85;55.65
9676;BME280;4876;42.656;23.292;2022-09-09T12:15:52;94459.84;;;25.90;56.40
9676;BME280;4876;42.656;23.292;2022-09-09T12:18:23;94426.97;;;26.02;55.09
9676;BME280;4876;42.656;23.292;2022-09-09T12:21:02;94443.44;;;26.08;54.90
9676;BME280;4876;42.656;23.292;2022-09-09T12:23:40;94456.66;;;26.25;55.58
9676;BME280;4876;42.656;23.292;2022-09-09T12:26:28;94456.75;;;26.22;54.78
9676;BME280;4876;42.656;23.292;2022-09-09T12:29:04;94445.53;;;26.23;54.58
9676;BME280;4876;42.656;23.292;2022-09-09T12:31:39;94436.03;;;26.15;54.04
9676;BME280;4876;42.656;23.292;2022-09-09T12:34:11;94430.94;;;26.21;54.48
9676;BME280;4876;42.656;23.292;2022-09-09T12:36:42;94423.25;;;26.19;55.12
9676;BME280;4876;42.656;23.292;2022-09-09T12:39:17;94416.91;;;26.06;54.75
9676;BME280;4876;42.656;23.292;2022-09-09T12:41:52;94429.28;;;26.03;54.53
9676;BME280;4876;42.656;23.292;2022-09-09T12:44:23;94434.66;;;26.03;55.12
9676;BME280;4876;42.656;23.292;2022-09-09T12:46:51;94433.72;;;26.14;54.60
9676;BME280;4876;42.656;23.292;2022-09-09T12:49:27;94425.28;;;26.12;54.78
9676;BME280;4876;42.656;23.292;2022-09-09T12:51:57;94425.03;;;26.29;55.15
9676;BME280;4876;42.656;23.292;2022-09-09T12:54:25;94424.91;;;26.40;54.85
9676;BME280;4876;42.656;23.292;2022-09-09T12:56:53;94407.13;;;26.43;54.49
9676;BME280;4876;42.656;23.292;2022-09-09T12:59:25;94411.78;;;26.39;54.68
9676;BME280;4876;42.656;23.292;2022-09-09T13:01:56;94398.28;;;26.15;54.36
9676;BME280;4876;42.656;23.292;2022-09-09T13:04:23;94412.84;;;26.21;54.76
9676;BME280;4876;42.656;23.292;2022-09-09T13:06:49;94411.00;;;26.42;55.33
9676;BME280;4876;42.656;23.292;2022-09-09T13:09:19;94404.88;;;26.38;54.71
9676;BME280;4876;42.656;23.292;2022-09-09T13:11:48;94398.28;;;26.15;54.32
9676;BME280;4876;42.656;23.292;2022-09-09T13:14:20;94395.72;;;26.31;54.71
9676;BME280;4876;42.656;23.292;2022-09-09T13:16:56;94400.22;;;26.42;54.68
9676;BME280;4876;42.656;23.292;2022-09-09T13:19:23;94406.56;;;26.28;54.66
9676;BME280;4876;42.656;23.292;2022-09-09T13:21:53;94403.25;;;26.44;54.45
9676;BME280;4876;42.656;23.292;2022-09-09T13:24:27;94387.22;;;26.60;53.71
9676;BME280;4876;42.656;23.292;2022-09-09T13:26:56;94371.06;;;26.56;53.81
9676;BME280;4876;42.656;23.292;2022-09-09T13:29:24;94371.50;;;26.55;53.55
9676;BME280;4876;42.656;23.292;2022-09-09T13:31:53;94370.38;;;26.52;54.58